sensor_id;sensor_type;location;lat;lon;timestamp;temperature;humidity
20398;DHT22;10358;49.590;11.030;2024-02-23T00:00:04;10.20;99.90
20398;DHT22;10358;49.590;11.030;2024-02-23T00:02:31;10.20;99.90
20398;DHT22;10358;49.590;11.030;2024-02-23T00:04:57;10.10;99.90
20398;DHT22;10358;49.590;11.030;2024-02-23T00:07:22;10.10;99.90
20398;DHT22;10358;49.590;11.030;2024-02-23T00:09:48;10.10;99.90
20398;DHT22;10358;49.590;11.030;2024-02-23T00:12:15;10.10;99.90
20398;DHT22;10358;49.590;11.030;2024-02-23T00:14:40;10.10;99.90
20398;DHT22;10358;49.590;11.030;2024-02-23T00:17:06;10.10;99.90
20398;DHT22;10358;49.590;11.030;2024-02-23T00:19:31;10.00;99.90
20398;DHT22;10358;49.590;11.030;2024-02-23T00:21:59;10.00;99.90
20398;DHT22;10358;49.590;11.030;2024-02-23T00:24:27;10.00;99.90
20398;DHT22;10358;49.590;11.030;2024-02-23T00:26:53;10.00;99.90
20398;DHT22;10358;49.590;11.030;2024-02-23T00:29:19;10.00;99.90
20398;DHT22;10358;49.590;11.030;2024-02-23T00:31:45;9.90;99.90
20398;DHT22;10358;49.590;11.030;2024-02-23T00:34:12;9.90;99.90
20398;DHT22;10358;49.590;11.030;2024-02-23T00:36:42;9.90;99.90
20398;DHT22;10358;49.590;11.030;2024-02-23T00:39:09;9.90;99.90
20398;DHT22;10358;49.590;11.030;2024-02-23T00:41:36;9.80;99.90
20398;DHT22;10358;49.590;11.030;2024-02-23T00:44:03;9.80;99.90
20398;DHT22;10358;49.590;11.030;2024-02-23T00:46:29;9.70;99.90
20398;DHT22;10358;49.590;11.030;2024-02-23T00:48:54;9.70;99.90
20398;DHT22;10358;49.590;11.030;2024-02-23T00:51:20;9.70;99.90
20398;DHT22;10358;49.590;11.030;2024-02-23T00:53:46;9.60;99.90
20398;DHT22;10358;49.590;11.030;2024-02-23T00:56:12;9.60;99.90
20398;DHT22;10358;49.590;11.030;2024-02-23T00:58:38;9.50;99.90
20398;DHT22;10358;49.590;11.030;2024-02-23T01:01:04;9.50;99.90
20398;DHT22;10358;49.590;11.030;2024-02-23T01:03:30;9.40;99.90
20398;DHT22;10358;49.590;11.030;2024-02-23T01:05:55;9.30;99.90
20398;DHT22;10358;49.590;11.030;2024-02-23T01:08:21;9.30;99.90
20398;DHT22;10358;49.590;11.030;2024-02-23T01:10:47;9.30;99.90
20398;DHT22;10358;49.590;11.030;2024-02-23T01:13:12;9.20;99.90
20398;DHT22;10358;49.590;11.030;2024-02-23T01:15:38;9.20;99.90
20398;DHT22;10358;49.590;11.030;2024-02-23T01:18:04;9.10;99.90
20398;DHT22;10358;49.590;11.030;2024-02-23T01:20:31;9.00;99.90
20398;DHT22;10358;49.590;11.030;2024-02-23T01:22:57;9.00;99.90
20398;DHT22;10358;49.590;11.030;2024-02-23T01:25:22;8.90;99.90
20398;DHT22;10358;49.590;11.030;2024-02-23T01:27:48;8.90;99.90
20398;DHT22;10358;49.590;11.030;2024-02-23T01:30:14;8.80;99.90
20398;DHT22;10358;49.590;11.030;2024-02-23T01:32:39;8.80;99.90
20398;DHT22;10358;49.590;11.030;2024-02-23T01:35:06;8.80;99.90
20398;DHT22;10358;49.590;11.030;2024-02-23T01:37:31;8.70;99.90
20398;DHT22;10358;49.590;11.030;2024-02-23T01:39:58;8.60;99.90
20398;DHT22;10358;49.590;11.030;2024-02-23T01:42:24;8.60;99.90
20398;DHT22;10358;49.590;11.030;2024-02-23T01:44:51;8.60;99.90
20398;DHT22;10358;49.590;11.030;2024-02-23T01:47:17;8.50;99.90
20398;DHT22;10358;49.590;11.030;2024-02-23T01:49:45;8.50;99.90
20398;DHT22;10358;49.590;11.030;2024-02-23T01:52:13;8.40;99.90
20398;DHT22;10358;49.590;11.030;2024-02-23T01:54:39;8.40;99.90
20398;DHT22;10358;49.590;11.030;2024-02-23T01:57:06;8.40;99.90
20398;DHT22;10358;49.590;11.030;2024-02-23T01:59:32;8.30;99.90
20398;DHT22;10358;49.590;11.030;2024-02-23T02:01:58;8.30;99.90
20398;DHT22;10358;49.590;11.030;2024-02-23T02:04:23;8.30;99.90
20398;DHT22;10358;49.590;11.030;2024-02-23T02:06:49;8.20;99.90
20398;DHT22;10358;49.590;11.030;2024-02-23T02:09:14;8.20;99.90
20398;DHT22;10358;49.590;11.030;2024-02-23T02:11:47;8.20;99.90
20398;DHT22;10358;49.590;11.030;2024-02-23T02:14:13;8.20;99.90
20398;DHT22;10358;49.590;11.030;2024-02-23T02:16:39;8.20;99.90
20398;DHT22;10358;49.590;11.030;2024-02-23T02:19:05;8.20;99.90
20398;DHT22;10358;49.590;11.030;2024-02-23T02:21:32;8.20;99.90
20398;DHT22;10358;49.590;11.030;2024-02-23T02:23:57;8.10;99.90
20398;DHT22;10358;49.590;11.030;2024-02-23T02:26:23;8.10;99.90
20398;DHT22;10358;49.590;11.030;2024-02-23T02:28:49;8.00;99.90
20398;DHT22;10358;49.590;11.030;2024-02-23T02:31:15;8.00;99.90
20398;DHT22;10358;49.590;11.030;2024-02-23T02:33:41;8.00;99.90
20398;DHT22;10358;49.590;11.030;2024-02-23T02:36:07;8.00;99.90
20398;DHT22;10358;49.590;11.030;2024-02-23T02:38:32;8.00;99.90
20398;DHT22;10358;49.590;11.030;2024-02-23T02:41:01;8.00;99.90
20398;DHT22;10358;49.590;11.030;2024-02-23T02:43:27;7.90;99.90
20398;DHT22;10358;49.590;11.030;2024-02-23T02:45:52;7.90;99.90
20398;DHT22;10358;49.590;11.030;2024-02-23T02:48:18;7.90;99.90
20398;DHT22;10358;49.590;11.030;2024-02-23T02:50:43;7.90;99.90
20398;DHT22;10358;49.590;11.030;2024-02-23T02:53:09;7.90;99.90
20398;DHT22;10358;49.590;11.030;2024-02-23T02:55:36;7.90;99.90
20398;DHT22;10358;49.590;11.030;2024-02-23T02:58:01;7.80;99.90
20398;DHT22;10358;49.590;11.030;2024-02-23T03:00:27;7.90;99.90
20398;DHT22;10358;49.590;11.030;2024-02-23T03:02:53;7.90;99.90
20398;DHT22;10358;49.590;11.030;2024-02-23T03:05:18;7.90;99.90
20398;DHT22;10358;49.590;11.030;2024-02-23T03:07:44;7.80;99.90
20398;DHT22;10358;49.590;11.030;2024-02-23T03:10:10;7.80;99.90
20398;DHT22;10358;49.590;11.030;2024-02-23T03:12:35;7.80;99.90
20398;DHT22;10358;49.590;11.030;2024-02-23T03:15:01;7.70;99.90
20398;DHT22;10358;49.590;11.030;2024-02-23T03:17:28;7.70;99.90
20398;DHT22;10358;49.590;11.030;2024-02-23T03:19:54;7.60;99.90
20398;DHT22;10358;49.590;11.030;2024-02-23T03:22:19;7.60;99.90
20398;DHT22;10358;49.590;11.030;2024-02-23T03:24:45;7.50;99.90
20398;DHT22;10358;49.590;11.030;2024-02-23T03:27:10;7.50;99.90
20398;DHT22;10358;49.590;11.030;2024-02-23T03:29:38;7.40;99.90
20398;DHT22;10358;49.590;11.030;2024-02-23T03:32:04;7.40;99.90
20398;DHT22;10358;49.590;11.030;2024-02-23T03:34:29;7.40;99.90
20398;DHT22;10358;49.590;11.030;2024-02-23T03:36:55;7.30;99.90
20398;DHT22;10358;49.590;11.030;2024-02-23T03:39:20;7.30;99.90
20398;DHT22;10358;49.590;11.030;2024-02-23T03:41:46;7.30;99.90
20398;DHT22;10358;49.590;11.030;2024-02-23T03:44:11;7.30;99.90
20398;DHT22;10358;49.590;11.030;2024-02-23T03:46:37;7.30;99.90
20398;DHT22;10358;49.590;11.030;2024-02-23T03:49:03;7.30;99.90
20398;DHT22;10358;49.590;11.030;2024-02-23T03:51:28;7.30;99.90
20398;DHT22;10358;49.590;11.030;2024-02-23T03:53:55;7.20;99.90
20398;DHT22;10358;49.590;11.030;2024-02-23T03:56:21;7.20;99.90
20398;DHT22;10358;49.590;11.030;2024-02-23T03:58:46;7.20;99.90
20398;DHT22;10358;49.590;11.030;2024-02-23T04:01:13;7.20;99.90
20398;DHT22;10358;49.590;11.030;2024-02-23T04:03:40;7.20;99.90
20398;DHT22;10358;49.590;11.030;2024-02-23T04:06:05;7.20;99.90
20398;DHT22;10358;49.590;11.030;2024-02-23T04:08:32;7.10;99.90
20398;DHT22;10358;49.590;11.030;2024-02-23T04:10:57;7.10;99.90
20398;DHT22;10358;49.590;11.030;2024-02-23T04:13:23;7.10;99.90
20398;DHT22;10358;49.590;11.030;2024-02-23T04:15:49;7.10;99.90
20398;DHT22;10358;49.590;11.030;2024-02-23T04:18:15;7.10;99.90
20398;DHT22;10358;49.590;11.030;2024-02-23T04:20:40;7.20;99.90
20398;DHT22;10358;49.590;11.030;2024-02-23T04:23:06;7.20;99.90
20398;DHT22;10358;49.590;11.030;2024-02-23T04:25:32;7.20;99.90
20398;DHT22;10358;49.590;11.030;2024-02-23T04:27:57;7.20;99.90
20398;DHT22;10358;49.590;11.030;2024-02-23T04:30:24;7.20;99.90
20398;DHT22;10358;49.590;11.030;2024-02-23T04:32:50;7.20;99.90
20398;DHT22;10358;49.590;11.030;2024-02-23T04:35:15;7.10;99.90
20398;DHT22;10358;49.590;11.030;2024-02-23T04:37:44;7.10;99.90
20398;DHT22;10358;49.590;11.030;2024-02-23T04:40:10;7.10;99.90
20398;DHT22;10358;49.590;11.030;2024-02-23T04:42:36;7.10;99.90
20398;DHT22;10358;49.590;11.030;2024-02-23T04:45:02;7.10;99.90
20398;DHT22;10358;49.590;11.030;2024-02-23T04:47:27;7.10;99.90
20398;DHT22;10358;49.590;11.030;2024-02-23T04:49:53;7.10;99.90
20398;DHT22;10358;49.590;11.030;2024-02-23T04:52:20;7.10;99.90
20398;DHT22;10358;49.590;11.030;2024-02-23T04:54:46;7.10;99.90
20398;DHT22;10358;49.590;11.030;2024-02-23T04:57:12;7.10;99.90
20398;DHT22;10358;49.590;11.030;2024-02-23T04:59:37;7.10;99.90
20398;DHT22;10358;49.590;11.030;2024-02-23T05:02:03;7.10;99.90
20398;DHT22;10358;49.590;11.030;2024-02-23T05:04:28;7.10;99.90
20398;DHT22;10358;49.590;11.030;2024-02-23T05:06:54;7.10;99.90
20398;DHT22;10358;49.590;11.030;2024-02-23T05:09:19;7.10;99.90
20398;DHT22;10358;49.590;11.030;2024-02-23T05:11:46;7.00;99.90
20398;DHT22;10358;49.590;11.030;2024-02-23T05:14:12;7.00;99.90
20398;DHT22;10358;49.590;11.030;2024-02-23T05:16:38;7.00;99.90
20398;DHT22;10358;49.590;11.030;2024-02-23T05:19:04;7.00;99.90
20398;DHT22;10358;49.590;11.030;2024-02-23T05:21:29;7.00;99.90
20398;DHT22;10358;49.590;11.030;2024-02-23T05:23:55;7.00;99.90
20398;DHT22;10358;49.590;11.030;2024-02-23T05:26:20;7.00;99.90
20398;DHT22;10358;49.590;11.030;2024-02-23T05:28:46;7.00;99.90
20398;DHT22;10358;49.590;11.030;2024-02-23T05:31:13;7.00;99.90
20398;DHT22;10358;49.590;11.030;2024-02-23T05:33:38;7.00;99.90
20398;DHT22;10358;49.590;11.030;2024-02-23T05:36:04;7.00;99.90
20398;DHT22;10358;49.590;11.030;2024-02-23T05:38:31;7.00;99.90
20398;DHT22;10358;49.590;11.030;2024-02-23T05:40:56;6.90;99.90
20398;DHT22;10358;49.590;11.030;2024-02-23T05:43:22;7.00;99.90
20398;DHT22;10358;49.590;11.030;2024-02-23T05:45:47;7.00;99.90
20398;DHT22;10358;49.590;11.030;2024-02-23T05:48:13;6.90;99.90
20398;DHT22;10358;49.590;11.030;2024-02-23T05:50:40;6.90;99.90
20398;DHT22;10358;49.590;11.030;2024-02-23T05:53:05;6.90;99.90
20398;DHT22;10358;49.590;11.030;2024-02-23T05:55:32;6.90;99.90
20398;DHT22;10358;49.590;11.030;2024-02-23T05:57:59;6.80;99.90
20398;DHT22;10358;49.590;11.030;2024-02-23T06:00:24;6.80;99.90
20398;DHT22;10358;49.590;11.030;2024-02-23T06:02:50;6.80;99.90
20398;DHT22;10358;49.590;11.030;2024-02-23T06:05:16;6.70;99.90
20398;DHT22;10358;49.590;11.030;2024-02-23T06:07:41;6.70;99.90
20398;DHT22;10358;49.590;11.030;2024-02-23T06:10:07;6.70;99.90
20398;DHT22;10358;49.590;11.030;2024-02-23T06:12:33;6.70;99.90
20398;DHT22;10358;49.590;11.030;2024-02-23T06:14:58;6.70;99.90
20398;DHT22;10358;49.590;11.030;2024-02-23T06:17:24;6.60;99.90
20398;DHT22;10358;49.590;11.030;2024-02-23T06:19:50;6.60;99.90
20398;DHT22;10358;49.590;11.030;2024-02-23T06:22:16;6.60;99.90
20398;DHT22;10358;49.590;11.030;2024-02-23T06:24:47;6.60;99.90
20398;DHT22;10358;49.590;11.030;2024-02-23T06:27:12;6.60;99.90
20398;DHT22;10358;49.590;11.030;2024-02-23T06:29:38;6.60;99.90
20398;DHT22;10358;49.590;11.030;2024-02-23T06:32:04;6.60;99.90
20398;DHT22;10358;49.590;11.030;2024-02-23T06:34:30;6.60;99.90
20398;DHT22;10358;49.590;11.030;2024-02-23T06:36:55;6.60;99.90
20398;DHT22;10358;49.590;11.030;2024-02-23T06:39:21;6.60;99.90
20398;DHT22;10358;49.590;11.030;2024-02-23T06:41:46;6.60;99.90
20398;DHT22;10358;49.590;11.030;2024-02-23T06:44:12;6.60;99.90
20398;DHT22;10358;49.590;11.030;2024-02-23T06:46:38;6.60;99.90
20398;DHT22;10358;49.590;11.030;2024-02-23T06:49:03;6.60;99.90
20398;DHT22;10358;49.590;11.030;2024-02-23T06:51:31;6.50;99.90
20398;DHT22;10358;49.590;11.030;2024-02-23T06:53:56;6.50;99.90
20398;DHT22;10358;49.590;11.030;2024-02-23T06:56:22;6.50;99.90
20398;DHT22;10358;49.590;11.030;2024-02-23T06:58:48;6.50;99.90
20398;DHT22;10358;49.590;11.030;2024-02-23T07:01:14;6.60;99.90
20398;DHT22;10358;49.590;11.030;2024-02-23T07:03:39;6.60;99.90
20398;DHT22;10358;49.590;11.030;2024-02-23T07:06:07;6.50;99.90
20398;DHT22;10358;49.590;11.030;2024-02-23T07:08:35;6.60;99.90
20398;DHT22;10358;49.590;11.030;2024-02-23T07:11:03;6.60;99.90
20398;DHT22;10358;49.590;11.030;2024-02-23T07:13:28;6.60;99.90
20398;DHT22;10358;49.590;11.030;2024-02-23T07:15:55;6.60;99.90
20398;DHT22;10358;49.590;11.030;2024-02-23T07:18:21;6.60;99.90
20398;DHT22;10358;49.590;11.030;2024-02-23T07:20:47;6.60;99.90
20398;DHT22;10358;49.590;11.030;2024-02-23T07:23:12;6.60;99.90
20398;DHT22;10358;49.590;11.030;2024-02-23T07:25:38;6.70;99.90
20398;DHT22;10358;49.590;11.030;2024-02-23T07:28:04;6.70;99.90
20398;DHT22;10358;49.590;11.030;2024-02-23T07:30:29;6.70;99.90
20398;DHT22;10358;49.590;11.030;2024-02-23T07:32:55;6.70;99.90
20398;DHT22;10358;49.590;11.030;2024-02-23T07:35:21;6.70;99.90
20398;DHT22;10358;49.590;11.030;2024-02-23T07:37:48;6.70;99.90
20398;DHT22;10358;49.590;11.030;2024-02-23T07:40:14;6.80;99.90
20398;DHT22;10358;49.590;11.030;2024-02-23T07:42:39;6.80;99.90
20398;DHT22;10358;49.590;11.030;2024-02-23T07:45:06;6.90;99.90
20398;DHT22;10358;49.590;11.030;2024-02-23T07:47:32;6.90;99.90
20398;DHT22;10358;49.590;11.030;2024-02-23T07:49:58;7.00;99.90
20398;DHT22;10358;49.590;11.030;2024-02-23T07:52:24;7.00;99.90
20398;DHT22;10358;49.590;11.030;2024-02-23T07:54:51;7.00;99.90
20398;DHT22;10358;49.590;11.030;2024-02-23T07:57:18;7.00;99.90
20398;DHT22;10358;49.590;11.030;2024-02-23T07:59:44;7.00;99.90
20398;DHT22;10358;49.590;11.030;2024-02-23T08:02:09;7.00;99.90
20398;DHT22;10358;49.590;11.030;2024-02-23T08:04:35;7.00;99.90
20398;DHT22;10358;49.590;11.030;2024-02-23T08:07:01;7.00;99.90
20398;DHT22;10358;49.590;11.030;2024-02-23T08:09:26;7.00;99.90
20398;DHT22;10358;49.590;11.030;2024-02-23T08:11:52;7.00;99.90
20398;DHT22;10358;49.590;11.030;2024-02-23T08:14:17;7.10;99.90
20398;DHT22;10358;49.590;11.030;2024-02-23T08:16:43;7.10;99.90
20398;DHT22;10358;49.590;11.030;2024-02-23T08:19:08;7.10;99.90
20398;DHT22;10358;49.590;11.030;2024-02-23T08:21:34;7.10;99.90
20398;DHT22;10358;49.590;11.030;2024-02-23T08:23:59;7.10;99.90
20398;DHT22;10358;49.590;11.030;2024-02-23T08:26:25;7.10;99.90
20398;DHT22;10358;49.590;11.030;2024-02-23T08:28:51;7.10;99.90
20398;DHT22;10358;49.590;11.030;2024-02-23T08:31:16;7.10;99.90
20398;DHT22;10358;49.590;11.030;2024-02-23T08:33:42;7.10;99.90
20398;DHT22;10358;49.590;11.030;2024-02-23T08:36:07;7.10;99.90
20398;DHT22;10358;49.590;11.030;2024-02-23T08:38:33;7.20;99.90
20398;DHT22;10358;49.590;11.030;2024-02-23T08:40:59;7.20;99.90
20398;DHT22;10358;49.590;11.030;2024-02-23T08:43:24;7.10;99.90
20398;DHT22;10358;49.590;11.030;2024-02-23T08:45:50;7.00;99.90
20398;DHT22;10358;49.590;11.030;2024-02-23T08:48:15;7.00;99.90
20398;DHT22;10358;49.590;11.030;2024-02-23T08:50:41;7.00;99.90
20398;DHT22;10358;49.590;11.030;2024-02-23T08:53:07;7.00;99.90
20398;DHT22;10358;49.590;11.030;2024-02-23T08:55:32;7.10;99.90
20398;DHT22;10358;49.590;11.030;2024-02-23T08:57:58;7.20;99.90
20398;DHT22;10358;49.590;11.030;2024-02-23T09:00:24;7.20;99.90
20398;DHT22;10358;49.590;11.030;2024-02-23T09:02:49;7.30;99.90
20398;DHT22;10358;49.590;11.030;2024-02-23T09:05:15;7.30;99.90
20398;DHT22;10358;49.590;11.030;2024-02-23T09:07:41;7.20;99.90
20398;DHT22;10358;49.590;11.030;2024-02-23T09:10:07;7.20;99.90
20398;DHT22;10358;49.590;11.030;2024-02-23T09:12:34;7.20;99.90
20398;DHT22;10358;49.590;11.030;2024-02-23T09:14:59;7.20;99.90
20398;DHT22;10358;49.590;11.030;2024-02-23T09:17:25;7.20;99.90
20398;DHT22;10358;49.590;11.030;2024-02-23T09:19:52;7.30;99.90
20398;DHT22;10358;49.590;11.030;2024-02-23T09:22:18;7.40;99.90
20398;DHT22;10358;49.590;11.030;2024-02-23T09:24:43;7.40;99.90
20398;DHT22;10358;49.590;11.030;2024-02-23T09:27:09;7.50;99.90
20398;DHT22;10358;49.590;11.030;2024-02-23T09:29:35;7.50;99.90
20398;DHT22;10358;49.590;11.030;2024-02-23T09:32:02;7.60;99.90
20398;DHT22;10358;49.590;11.030;2024-02-23T09:34:27;7.60;99.90
20398;DHT22;10358;49.590;11.030;2024-02-23T09:36:54;7.60;99.90
20398;DHT22;10358;49.590;11.030;2024-02-23T09:39:21;7.60;99.90
20398;DHT22;10358;49.590;11.030;2024-02-23T09:41:50;7.50;99.90
20398;DHT22;10358;49.590;11.030;2024-02-23T09:44:16;7.60;99.90
20398;DHT22;10358;49.590;11.030;2024-02-23T09:46:43;7.60;99.90
20398;DHT22;10358;49.590;11.030;2024-02-23T09:49:11;7.70;99.90
20398;DHT22;10358;49.590;11.030;2024-02-23T09:51:39;7.80;99.90
20398;DHT22;10358;49.590;11.030;2024-02-23T09:54:04;7.90;99.90
20398;DHT22;10358;49.590;11.030;2024-02-23T09:56:30;7.90;99.90
20398;DHT22;10358;49.590;11.030;2024-02-23T09:58:58;8.00;99.90
20398;DHT22;10358;49.590;11.030;2024-02-23T10:01:27;8.00;99.90
20398;DHT22;10358;49.590;11.030;2024-02-23T10:04:00;8.10;99.90
20398;DHT22;10358;49.590;11.030;2024-02-23T10:06:29;8.10;99.90
20398;DHT22;10358;49.590;11.030;2024-02-23T10:08:55;8.10;99.90
20398;DHT22;10358;49.590;11.030;2024-02-23T10:11:22;8.20;99.90
20398;DHT22;10358;49.590;11.030;2024-02-23T10:13:50;8.20;99.90
20398;DHT22;10358;49.590;11.030;2024-02-23T10:16:17;8.20;99.90
20398;DHT22;10358;49.590;11.030;2024-02-23T10:18:45;8.10;99.90
20398;DHT22;10358;49.590;11.030;2024-02-23T10:21:12;8.10;99.90
20398;DHT22;10358;49.590;11.030;2024-02-23T10:23:39;8.10;99.90
20398;DHT22;10358;49.590;11.030;2024-02-23T10:26:06;8.10;99.90
20398;DHT22;10358;49.590;11.030;2024-02-23T10:28:31;8.10;99.90
20398;DHT22;10358;49.590;11.030;2024-02-23T10:30:57;8.20;99.90
20398;DHT22;10358;49.590;11.030;2024-02-23T10:33:23;8.20;99.90
20398;DHT22;10358;49.590;11.030;2024-02-23T10:35:55;8.20;99.90
20398;DHT22;10358;49.590;11.030;2024-02-23T10:38:22;8.20;99.90
20398;DHT22;10358;49.590;11.030;2024-02-23T10:40:50;8.30;99.90
20398;DHT22;10358;49.590;11.030;2024-02-23T10:43:19;8.20;99.90
20398;DHT22;10358;49.590;11.030;2024-02-23T10:45:46;8.20;99.90
20398;DHT22;10358;49.590;11.030;2024-02-23T10:48:12;8.10;99.90
20398;DHT22;10358;49.590;11.030;2024-02-23T10:50:40;8.10;99.90
20398;DHT22;10358;49.590;11.030;2024-02-23T10:53:07;8.10;99.90
20398;DHT22;10358;49.590;11.030;2024-02-23T10:55:36;8.20;99.90
20398;DHT22;10358;49.590;11.030;2024-02-23T10:58:02;8.20;99.90
20398;DHT22;10358;49.590;11.030;2024-02-23T11:00:29;8.20;99.90
20398;DHT22;10358;49.590;11.030;2024-02-23T11:02:55;8.20;99.90
20398;DHT22;10358;49.590;11.030;2024-02-23T11:05:21;8.20;99.90
20398;DHT22;10358;49.590;11.030;2024-02-23T11:07:48;8.30;99.90
20398;DHT22;10358;49.590;11.030;2024-02-23T11:10:18;8.30;99.90
20398;DHT22;10358;49.590;11.030;2024-02-23T11:12:57;8.30;99.90
20398;DHT22;10358;49.590;11.030;2024-02-23T11:15:26;8.20;99.90
20398;DHT22;10358;49.590;11.030;2024-02-23T11:17:52;8.20;99.90
20398;DHT22;10358;49.590;11.030;2024-02-23T11:20:17;8.30;99.90
20398;DHT22;10358;49.590;11.030;2024-02-23T11:22:43;8.30;99.90
20398;DHT22;10358;49.590;11.030;2024-02-23T11:25:09;8.30;99.90
20398;DHT22;10358;49.590;11.030;2024-02-23T11:27:37;8.30;99.90
20398;DHT22;10358;49.590;11.030;2024-02-23T11:32:40;8.30;99.90
20398;DHT22;10358;49.590;11.030;2024-02-23T11:35:16;8.30;99.90
20398;DHT22;10358;49.590;11.030;2024-02-23T11:37:57;8.40;99.90
20398;DHT22;10358;49.590;11.030;2024-02-23T11:40:29;8.40;99.90
20398;DHT22;10358;49.590;11.030;2024-02-23T11:42:55;8.40;99.90
20398;DHT22;10358;49.590;11.030;2024-02-23T11:45:21;8.50;99.90
20398;DHT22;10358;49.590;11.030;2024-02-23T11:47:47;8.50;99.90
20398;DHT22;10358;49.590;11.030;2024-02-23T11:50:13;8.50;99.90
20398;DHT22;10358;49.590;11.030;2024-02-23T11:52:40;8.40;99.90
20398;DHT22;10358;49.590;11.030;2024-02-23T11:55:06;8.40;99.90
20398;DHT22;10358;49.590;11.030;2024-02-23T11:57:34;8.40;99.90
20398;DHT22;10358;49.590;11.030;2024-02-23T12:00:03;8.40;99.90
20398;DHT22;10358;49.590;11.030;2024-02-23T12:02:30;8.50;99.90
20398;DHT22;10358;49.590;11.030;2024-02-23T12:04:55;8.50;99.90
20398;DHT22;10358;49.590;11.030;2024-02-23T12:07:21;8.60;99.90
20398;DHT22;10358;49.590;11.030;2024-02-23T12:09:47;8.60;99.90
20398;DHT22;10358;49.590;11.030;2024-02-23T12:12:13;8.70;99.90
20398;DHT22;10358;49.590;11.030;2024-02-23T12:14:41;8.80;99.90
20398;DHT22;10358;49.590;11.030;2024-02-23T12:17:08;8.80;99.90
20398;DHT22;10358;49.590;11.030;2024-02-23T12:19:40;8.80;99.90
20398;DHT22;10358;49.590;11.030;2024-02-23T12:22:07;8.90;99.90
20398;DHT22;10358;49.590;11.030;2024-02-23T12:24:32;8.90;99.90
20398;DHT22;10358;49.590;11.030;2024-02-23T12:26:59;8.90;99.90
20398;DHT22;10358;49.590;11.030;2024-02-23T12:29:24;8.90;99.90
20398;DHT22;10358;49.590;11.030;2024-02-23T12:31:50;8.90;99.90
20398;DHT22;10358;49.590;11.030;2024-02-23T12:34:18;8.80;99.90
20398;DHT22;10358;49.590;11.030;2024-02-23T12:36:46;8.80;99.90
20398;DHT22;10358;49.590;11.030;2024-02-23T12:39:11;8.80;99.90
20398;DHT22;10358;49.590;11.030;2024-02-23T12:41:37;8.90;99.90
20398;DHT22;10358;49.590;11.030;2024-02-23T12:44:02;8.90;99.90
20398;DHT22;10358;49.590;11.030;2024-02-23T12:46:28;8.90;99.90
20398;DHT22;10358;49.590;11.030;2024-02-23T12:48:54;8.90;99.90
20398;DHT22;10358;49.590;11.030;2024-02-23T12:51:25;8.90;99.90
20398;DHT22;10358;49.590;11.030;2024-02-23T12:53:51;8.90;99.90
20398;DHT22;10358;49.590;11.030;2024-02-23T12:56:16;8.90;99.90
20398;DHT22;10358;49.590;11.030;2024-02-23T12:58:44;8.80;99.90
20398;DHT22;10358;49.590;11.030;2024-02-23T13:01:11;8.70;99.90
20398;DHT22;10358;49.590;11.030;2024-02-23T13:03:37;8.70;99.90
20398;DHT22;10358;49.590;11.030;2024-02-23T13:06:04;8.70;99.90
20398;DHT22;10358;49.590;11.030;2024-02-23T13:08:30;8.60;99.90
20398;DHT22;10358;49.590;11.030;2024-02-23T13:10:56;8.60;99.90
20398;DHT22;10358;49.590;11.030;2024-02-23T13:13:22;8.60;99.90
20398;DHT22;10358;49.590;11.030;2024-02-23T13:15:49;8.70;99.90
20398;DHT22;10358;49.590;11.030;2024-02-23T13:18:15;8.70;99.90
20398;DHT22;10358;49.590;11.030;2024-02-23T13:20:41;8.70;99.90
20398;DHT22;10358;49.590;11.030;2024-02-23T13:23:07;8.80;99.90
20398;DHT22;10358;49.590;11.030;2024-02-23T13:25:37;8.80;99.90
20398;DHT22;10358;49.590;11.030;2024-02-23T13:28:03;8.80;99.90
20398;DHT22;10358;49.590;11.030;2024-02-23T13:30:30;8.80;99.90
20398;DHT22;10358;49.590;11.030;2024-02-23T13:32:55;8.80;99.90
20398;DHT22;10358;49.590;11.030;2024-02-23T13:35:21;8.80;99.90
20398;DHT22;10358;49.590;11.030;2024-02-23T13:37:47;8.80;99.90
20398;DHT22;10358;49.590;11.030;2024-02-23T13:40:14;8.80;99.90
20398;DHT22;10358;49.590;11.030;2024-02-23T13:42:40;8.80;99.90
20398;DHT22;10358;49.590;11.030;2024-02-23T13:45:09;8.80;99.90
20398;DHT22;10358;49.590;11.030;2024-02-23T13:47:35;8.90;99.90
20398;DHT22;10358;49.590;11.030;2024-02-23T13:50:04;8.90;99.90
20398;DHT22;10358;49.590;11.030;2024-02-23T13:52:32;8.90;99.90
20398;DHT22;10358;49.590;11.030;2024-02-23T13:54:58;8.80;99.90
20398;DHT22;10358;49.590;11.030;2024-02-23T13:57:23;8.80;99.90
20398;DHT22;10358;49.590;11.030;2024-02-23T13:59:49;8.80;99.90
20398;DHT22;10358;49.590;11.030;2024-02-23T14:02:16;8.80;99.90
20398;DHT22;10358;49.590;11.030;2024-02-23T14:04:44;8.80;99.90
20398;DHT22;10358;49.590;11.030;2024-02-23T14:07:10;8.80;99.90
20398;DHT22;10358;49.590;11.030;2024-02-23T14:09:36;8.80;99.90
20398;DHT22;10358;49.590;11.030;2024-02-23T14:12:01;8.80;99.90
20398;DHT22;10358;49.590;11.030;2024-02-23T14:14:27;8.80;99.90
20398;DHT22;10358;49.590;11.030;2024-02-23T14:16:54;8.80;99.90
20398;DHT22;10358;49.590;11.030;2024-02-23T14:19:19;8.80;99.90
20398;DHT22;10358;49.590;11.030;2024-02-23T14:21:46;8.80;99.90
20398;DHT22;10358;49.590;11.030;2024-02-23T14:24:13;8.90;99.90
20398;DHT22;10358;49.590;11.030;2024-02-23T14:26:39;8.80;99.90
20398;DHT22;10358;49.590;11.030;2024-02-23T14:29:05;8.90;99.90
20398;DHT22;10358;49.590;11.030;2024-02-23T14:31:30;8.90;99.90
20398;DHT22;10358;49.590;11.030;2024-02-23T14:33:57;8.90;99.90
20398;DHT22;10358;49.590;11.030;2024-02-23T14:36:22;8.90;99.90
20398;DHT22;10358;49.590;11.030;2024-02-23T14:38:49;8.90;99.90
20398;DHT22;10358;49.590;11.030;2024-02-23T14:41:15;8.90;99.90
20398;DHT22;10358;49.590;11.030;2024-02-23T14:43:40;8.80;99.90
20398;DHT22;10358;49.590;11.030;2024-02-23T14:46:07;8.80;99.90
20398;DHT22;10358;49.590;11.030;2024-02-23T14:48:34;8.70;99.90
20398;DHT22;10358;49.590;11.030;2024-02-23T14:51:00;8.70;99.90
20398;DHT22;10358;49.590;11.030;2024-02-23T14:53:28;8.70;99.90
20398;DHT22;10358;49.590;11.030;2024-02-23T14:55:54;8.60;99.90
20398;DHT22;10358;49.590;11.030;2024-02-23T14:58:19;8.60;99.90
20398;DHT22;10358;49.590;11.030;2024-02-23T15:00:45;8.60;99.90
20398;DHT22;10358;49.590;11.030;2024-02-23T15:03:10;8.60;99.90
20398;DHT22;10358;49.590;11.030;2024-02-23T15:05:37;8.50;99.90
20398;DHT22;10358;49.590;11.030;2024-02-23T15:08:03;8.50;99.90
20398;DHT22;10358;49.590;11.030;2024-02-23T15:10:29;8.40;99.90
20398;DHT22;10358;49.590;11.030;2024-02-23T15:12:55;8.40;99.90
20398;DHT22;10358;49.590;11.030;2024-02-23T15:15:20;8.40;99.90
20398;DHT22;10358;49.590;11.030;2024-02-23T15:17:48;8.30;99.90
20398;DHT22;10358;49.590;11.030;2024-02-23T15:20:14;8.30;99.90
20398;DHT22;10358;49.590;11.030;2024-02-23T15:22:40;8.40;99.90
20398;DHT22;10358;49.590;11.030;2024-02-23T15:25:08;8.40;99.90